Time;durP1;ratioP1;P1;durP2;ratioP2;P2;SDS_P1;SDS_P2;PMS_P1;PMS_P2;Temp;Humidity;BMP_temperature;BMP_pressure;BME280_temperature;BME280_humidity;BME280_pressure;Samples;Min_cycle;Max_cycle;Signal;HPM_P1;HPM_P2
2022/05/31 00:01:54;;;;;;;14.23;5.63;;;8.60;99.90;;;;;;4421068;28;656166;-70
2022/05/31 00:04:43;;;;;;;10.23;5.27;;;8.50;99.90;;;;;;4416107;28;657348;-70
2022/05/31 00:07:30;;;;;;;9.10;5.77;;;8.50;99.90;;;;;;4387847;28;656521;-71
2022/05/31 00:10:17;;;;;;;10.23;6.07;;;8.20;99.90;;;;;;4419676;28;656934;-70
2022/05/31 00:13:05;;;;;;;10.90;6.43;;;8.10;99.90;;;;;;4405237;28;656246;-70
2022/05/31 00:15:53;;;;;;;8.93;5.80;;;8.00;99.90;;;;;;4422353;28;657678;-70
2022/05/31 00:18:44;;;;;;;10.33;5.33;;;8.00;99.90;;;;;;4421931;28;655325;-70
2022/05/31 00:21:41;;;;;;;9.60;5.17;;;7.90;99.90;;;;;;4403312;28;656604;-70
2022/05/31 00:24:28;;;;;;;11.47;5.13;;;7.90;99.90;;;;;;4413254;28;656375;-70
2022/05/31 00:27:17;;;;;;;9.27;5.00;;;7.90;99.90;;;;;;4406515;28;656558;-71
2022/05/31 00:30:04;;;;;;;7.60;5.00;;;7.80;99.90;;;;;;4431371;28;655356;-70
2022/05/31 00:32:52;;;;;;;9.40;4.90;;;7.70;99.90;;;;;;4406937;28;656803;-71
2022/05/31 00:35:41;;;;;;;8.07;5.40;;;7.70;99.90;;;;;;4424211;28;655546;-70
2022/05/31 00:38:29;;;;;;;9.80;5.30;;;7.70;99.90;;;;;;4403175;28;656514;-71
2022/05/31 00:41:27;;;;;;;6.77;4.23;;;7.80;99.90;;;;;;4397384;28;655791;-70
2022/05/31 00:44:16;;;;;;;8.17;4.93;;;7.70;99.90;;;;;;4389214;28;656070;-71
2022/05/31 00:47:05;;;;;;;10.50;5.07;;;7.60;99.90;;;;;;4399065;28;655738;-71
2022/05/31 00:49:53;;;;;;;8.27;4.80;;;7.60;99.90;;;;;;4396048;28;657090;-71
2022/05/31 00:52:42;;;;;;;12.40;5.10;;;7.70;99.90;;;;;;4424868;28;655194;-70
2022/05/31 00:55:32;;;;;;;8.60;4.67;;;7.60;99.90;;;;;;4423751;28;656547;-71
2022/05/31 00:58:20;;;;;;;10.97;4.40;;;7.60;99.90;;;;;;4392095;28;655545;-70
2022/05/31 01:01:09;;;;;;;6.33;4.70;;;7.60;99.90;;;;;;4420446;28;656143;-70
2022/05/31 01:03:56;;;;;;;6.82;4.32;;;7.60;99.90;;;;;;4399501;28;655884;-71
2022/05/31 01:06:43;;;;;;;11.40;4.70;;;7.60;99.90;;;;;;4416157;28;655796;-70
2022/05/31 01:09:31;;;;;;;6.40;4.80;;;7.70;99.90;;;;;;4394907;28;656253;-71
2022/05/31 01:12:19;;;;;;;10.00;4.80;;;7.80;99.90;;;;;;4412517;28;656515;-71
2022/05/31 01:15:08;;;;;;;6.93;3.97;;;7.80;99.90;;;;;;4396372;28;656830;-71
2022/05/31 01:17:55;;;;;;;10.03;3.97;;;7.90;99.90;;;;;;4411060;28;655105;-71
2022/05/31 01:20:44;;;;;;;4.37;3.53;;;8.00;99.90;;;;;;4433401;28;656961;-70
2022/05/31 01:23:33;;;;;;;6.37;3.93;;;8.00;99.90;;;;;;4427634;28;656291;-71
2022/05/31 01:26:25;;;;;;;7.37;3.73;;;8.00;99.90;;;;;;4409975;28;655968;-71
2022/05/31 01:29:16;;;;;;;8.87;4.17;;;7.80;99.90;;;;;;4399514;28;656571;-70
2022/05/31 01:32:05;;;;;;;5.70;3.83;;;7.70;99.90;;;;;;4403405;28;655911;-70
2022/05/31 01:34:54;;;;;;;7.87;4.57;;;7.60;99.90;;;;;;4395378;28;656832;-71
2022/05/31 01:37:46;;;;;;;6.73;4.07;;;7.50;99.90;;;;;;4409584;28;656574;-71
2022/05/31 01:40:38;;;;;;;8.17;3.70;;;7.40;99.90;;;;;;4420682;28;655944;-71
2022/05/31 01:43:25;;;;;;;5.23;3.73;;;7.30;99.90;;;;;;4431364;28;656292;-70
2022/05/31 01:46:14;;;;;;;5.80;3.43;;;7.20;99.90;;;;;;4430099;28;655492;-70
2022/05/31 01:49:01;;;;;;;6.77;3.83;;;7.10;99.90;;;;;;4408182;28;656461;-70
2022/05/31 01:51:49;;;;;;;6.40;3.83;;;7.00;99.90;;;;;;4432147;28;655435;-71
2022/05/31 01:54:37;;;;;;;5.33;3.37;;;7.00;99.90;;;;;;4452500;28;655965;-71
2022/05/31 01:57:24;;;;;;;10.87;3.23;;;6.90;99.90;;;;;;4427450;28;655387;-70
2022/05/31 02:00:13;;;;;;;12.67;3.40;;;6.70;99.90;;;;;;4409896;28;656276;-70
2022/05/31 02:03:01;;;;;;;9.40;3.17;;;6.70;99.90;;;;;;4419845;28;657355;-70
2022/05/31 02:05:48;;;;;;;5.20;3.40;;;6.60;99.90;;;;;;4435563;28;655793;-71
2022/05/31 02:08:36;;;;;;;6.47;3.87;;;6.60;99.90;;;;;;4413507;28;655695;-71
2022/05/31 02:11:32;;;;;;;9.50;3.83;;;6.50;99.90;;;;;;4432120;28;656136;-71
2022/05/31 02:14:19;;;;;;;4.83;3.70;;;6.50;99.90;;;;;;4405686;28;655284;-71
2022/05/31 02:17:06;;;;;;;7.93;3.60;;;6.30;99.90;;;;;;4409621;28;655356;-71
2022/05/31 02:19:53;;;;;;;6.23;3.63;;;6.20;99.90;;;;;;4429873;28;655921;-71
2022/05/31 02:22:40;;;;;;;7.50;3.67;;;6.10;99.90;;;;;;4410547;28;655809;-71
2022/05/31 02:25:28;;;;;;;4.90;3.50;;;6.10;99.90;;;;;;4428535;28;656582;-71
2022/05/31 02:28:17;;;;;;;6.03;3.60;;;6.00;99.90;;;;;;4442232;28;655490;-69
2022/05/31 02:31:04;;;;;;;5.90;3.93;;;6.00;99.90;;;;;;4434307;28;655525;-69
2022/05/31 02:33:51;;;;;;;8.63;3.77;;;5.90;99.90;;;;;;4408421;28;655547;-69
2022/05/31 02:36:38;;;;;;;7.63;3.97;;;5.90;99.90;;;;;;4431014;28;655985;-70
2022/05/31 02:39:26;;;;;;;8.57;3.93;;;5.90;99.90;;;;;;4411936;28;655675;-70
2022/05/31 02:42:13;;;;;;;5.87;3.60;;;5.90;99.90;;;;;;4432044;28;655758;-70
2022/05/31 02:45:02;;;;;;;5.50;4.17;;;6.00;99.90;;;;;;4412318;28;655906;-70
2022/05/31 02:47:49;;;;;;;4.30;3.70;;;5.80;99.90;;;;;;4429351;28;655427;-70
2022/05/31 02:50:39;;;;;;;4.50;3.40;;;5.70;99.90;;;;;;4411499;28;655683;-70
2022/05/31 02:53:26;;;;;;;5.30;3.67;;;5.70;99.90;;;;;;4409894;28;655974;-70
2022/05/31 02:56:14;;;;;;;7.10;3.27;;;5.80;99.90;;;;;;4426969;28;655302;-70
2022/05/31 02:59:01;;;;;;;7.43;3.60;;;5.80;99.90;;;;;;4411094;28;655887;-69
2022/05/31 03:01:50;;;;;;;9.53;3.60;;;5.80;99.90;;;;;;4450531;28;656269;-70
2022/05/31 03:04:37;;;;;;;6.23;3.50;;;5.70;99.90;;;;;;4406459;28;656098;-70
2022/05/31 03:07:24;;;;;;;5.22;3.50;;;5.80;99.90;;;;;;4429413;28;656167;-70
2022/05/31 03:10:11;;;;;;;5.83;3.77;;;5.70;99.90;;;;;;4405589;28;655361;-70
2022/05/31 03:12:59;;;;;;;5.80;3.17;;;5.70;99.90;;;;;;4429922;28;656099;-70
2022/05/31 03:15:46;;;;;;;5.77;3.33;;;5.70;99.90;;;;;;4409334;28;655387;-70
2022/05/31 03:18:36;;;;;;;5.80;3.07;;;5.80;99.90;;;;;;4430113;28;656147;-70
2022/05/31 03:21:25;;;;;;;4.20;3.37;;;5.80;99.90;;;;;;4403693;28;655995;-70
2022/05/31 03:24:14;;;;;;;4.23;3.50;;;5.80;99.90;;;;;;4408677;28;656005;-70
2022/05/31 03:27:02;;;;;;;6.03;3.33;;;5.80;99.90;;;;;;4407128;28;656457;-70
2022/05/31 03:29:50;;;;;;;4.90;3.13;;;5.80;99.90;;;;;;4423877;28;654774;-70
2022/05/31 03:32:37;;;;;;;4.40;3.30;;;5.80;99.90;;;;;;4405899;28;656500;-70
2022/05/31 03:35:25;;;;;;;4.23;3.47;;;5.90;99.90;;;;;;4429873;28;655583;-70
2022/05/31 03:38:13;;;;;;;9.70;3.27;;;5.90;99.90;;;;;;4407711;28;655819;-70
2022/05/31 03:41:00;;;;;;;5.80;3.20;;;6.00;99.90;;;;;;4420349;28;656222;-70
2022/05/31 03:43:47;;;;;;;6.80;3.33;;;6.10;99.90;;;;;;4428959;28;656527;-70
2022/05/31 03:46:35;;;;;;;6.23;3.53;;;6.20;99.90;;;;;;4435016;28;656323;-70
2022/05/31 03:49:22;;;;;;;6.87;3.50;;;6.30;99.90;;;;;;4422808;28;656923;-70
2022/05/31 03:52:10;;;;;;;8.17;3.27;;;6.40;99.90;;;;;;4425812;28;655458;-70
2022/05/31 03:54:57;;;;;;;4.77;3.20;;;6.50;99.90;;;;;;4412821;28;655970;-70
2022/05/31 03:57:47;;;;;;;5.37;3.40;;;6.60;99.90;;;;;;4423892;28;655377;-70
2022/05/31 04:00:34;;;;;;;3.60;2.60;;;6.70;99.90;;;;;;4446874;28;655873;-70
2022/05/31 04:03:21;;;;;;;5.40;3.10;;;6.90;99.90;;;;;;4410606;28;656075;-70
2022/05/31 04:06:08;;;;;;;4.10;2.90;;;6.90;99.90;;;;;;4425500;28;655920;-70
2022/05/31 04:08:57;;;;;;;6.63;2.90;;;7.00;99.90;;;;;;4407966;28;656367;-70
2022/05/31 04:11:44;;;;;;;4.17;3.10;;;7.10;99.90;;;;;;4422157;28;655713;-70
2022/05/31 04:14:31;;;;;;;5.60;3.17;;;7.20;99.90;;;;;;4408632;28;656046;-70
2022/05/31 04:17:18;;;;;;;4.93;3.20;;;7.40;99.90;;;;;;4425466;28;655407;-70
2022/05/31 04:20:07;;;;;;;4.53;3.20;;;7.50;99.90;;;;;;4411954;28;655236;-70
2022/05/31 04:23:57;;;;;;;4.17;3.00;;;7.60;99.90;;;;;;4434334;28;654845;-70
2022/05/31 04:26:06;;;;;;;12.03;2.77;;;7.80;99.90;;;;;;4380509;28;655719;-70
2022/05/31 04:28:53;;;;;;;7.63;2.63;;;8.00;99.90;;;;;;4402420;28;658241;-70
2022/05/31 04:31:40;;;;;;;7.20;3.27;;;8.10;99.90;;;;;;4409743;28;655659;-70
2022/05/31 04:34:28;;;;;;;3.60;2.37;;;8.20;99.90;;;;;;4418631;28;657185;-70
2022/05/31 04:37:15;;;;;;;8.77;2.87;;;8.30;99.90;;;;;;4409798;28;656390;-70
2022/05/31 04:40:03;;;;;;;4.60;3.00;;;8.60;99.90;;;;;;4427040;28;655456;-70
2022/05/31 04:42:52;;;;;;;3.70;2.75;;;8.70;99.90;;;;;;4404235;28;655112;-70
2022/05/31 04:45:39;;;;;;;6.57;3.00;;;8.90;99.90;;;;;;4446880;28;655144;-70
2022/05/31 04:48:26;;;;;;;6.73;3.30;;;9.10;99.90;;;;;;4427324;28;655439;-70
2022/05/31 04:51:13;;;;;;;4.73;3.20;;;9.30;99.90;;;;;;4430627;28;655744;-70
2022/05/31 04:54:00;;;;;;;5.87;3.67;;;9.40;99.90;;;;;;4410754;28;655449;-70
2022/05/31 04:56:48;;;;;;;4.57;3.50;;;9.60;99.90;;;;;;4430633;28;657191;-70
2022/05/31 04:59:36;;;;;;;5.17;3.53;;;9.80;99.90;;;;;;4421041;28;655420;-70
2022/05/31 05:02:24;;;;;;;6.43;3.97;;;9.90;99.90;;;;;;4427133;28;655203;-70
2022/05/31 05:05:17;;;;;;;6.80;3.47;;;10.00;99.90;;;;;;4412364;28;655231;-70
2022/05/31 05:08:09;;;;;;;5.47;3.60;;;10.20;99.90;;;;;;4410793;28;656229;-70
2022/05/31 05:10:56;;;;;;;5.10;3.40;;;10.30;99.90;;;;;;4411072;28;656349;-70
2022/05/31 05:13:43;;;;;;;7.03;3.47;;;10.60;99.90;;;;;;4430768;28;656906;-70
2022/05/31 05:16:32;;;;;;;5.33;3.10;;;10.70;99.90;;;;;;4408463;28;657051;-70
2022/05/31 05:19:19;;;;;;;5.93;3.57;;;10.80;99.90;;;;;;4425117;28;656451;-70
2022/05/31 05:22:06;;;;;;;11.13;4.07;;;10.90;99.90;;;;;;4408055;28;656543;-70
2022/05/31 05:24:53;;;;;;;6.50;3.30;;;11.10;99.90;;;;;;4429158;28;657847;-70
2022/05/31 05:27:41;;;;;;;6.97;3.03;;;11.30;99.90;;;;;;4411271;28;656766;-70
2022/05/31 05:30:39;;;;;;;4.83;2.90;;;11.40;99.90;;;;;;4433773;28;657125;-70
2022/05/31 05:33:28;;;;;;;4.33;2.70;;;11.60;99.90;;;;;;4424938;28;656974;-70
2022/05/31 05:36:15;;;;;;;5.93;2.40;;;11.80;99.90;;;;;;4410304;28;656287;-70
2022/05/31 05:39:04;;;;;;;4.40;2.40;;;12.00;99.90;;;;;;4415177;28;658062;-69
2022/05/31 05:41:51;;;;;;;7.37;2.67;;;12.30;99.90;;;;;;4410889;28;656587;-68
2022/05/31 05:44:38;;;;;;;6.25;2.50;;;12.50;99.90;;;;;;4428810;28;657052;-67
2022/05/31 05:47:26;;;;;;;5.40;2.83;;;12.70;99.90;;;;;;4403795;28;656737;-68
2022/05/31 05:50:14;;;;;;;4.50;2.80;;;12.90;99.90;;;;;;4432139;28;657611;-68
2022/05/31 05:53:03;;;;;;;7.37;2.50;;;13.20;99.90;;;;;;4400644;28;657160;-68
2022/05/31 05:55:50;;;;;;;4.17;2.80;;;13.40;99.90;;;;;;4422429;28;656453;-68
2022/05/31 05:58:37;;;;;;;6.77;2.67;;;13.60;99.90;;;;;;4431282;28;657042;-68
2022/05/31 06:01:27;;;;;;;10.23;2.70;;;13.80;99.90;;;;;;4430269;28;656488;-68
2022/05/31 06:04:17;;;;;;;5.60;3.17;;;14.00;99.90;;;;;;4436231;28;658109;-68
2022/05/31 06:07:09;;;;;;;6.43;3.03;;;14.10;99.90;;;;;;4406582;28;657192;-68
2022/05/31 06:09:58;;;;;;;8.60;3.07;;;14.20;99.90;;;;;;4411351;28;656809;-67
2022/05/31 06:12:48;;;;;;;4.80;3.30;;;14.40;99.90;;;;;;4409673;28;656646;-68
2022/05/31 06:15:39;;;;;;;6.70;3.00;;;14.60;99.90;;;;;;4410558;28;656736;-68
2022/05/31 06:18:27;;;;;;;6.43;3.40;;;14.80;99.90;;;;;;4407663;28;656416;-68
2022/05/31 06:21:14;;;;;;;10.63;4.13;;;14.90;99.90;;;;;;4424801;28;656240;-68
2022/05/31 06:24:21;;;;;;;7.60;3.70;;;15.10;99.90;;;;;;4408795;28;657917;-68
2022/05/31 06:27:08;;;;;;;6.90;3.70;;;15.30;99.90;;;;;;4445036;28;657063;-68
2022/05/31 06:29:55;;;;;;;4.43;3.87;;;15.60;99.90;;;;;;4411199;28;656442;-68
2022/05/31 06:32:42;;;;;;;5.13;4.00;;;15.60;99.90;;;;;;4432232;28;656658;-68
2022/05/31 06:35:29;;;;;;;5.87;3.97;;;15.60;99.90;;;;;;4426167;28;656570;-67
2022/05/31 06:38:17;;;;;;;7.93;3.90;;;15.80;99.90;;;;;;4402224;28;656574;-67
2022/05/31 06:41:06;;;;;;;6.00;3.67;;;15.90;99.90;;;;;;4404140;28;656460;-68
2022/05/31 06:43:53;;;;;;;5.23;4.00;;;15.90;99.90;;;;;;4412369;28;657020;-68
2022/05/31 06:46:43;;;;;;;9.47;4.20;;;16.10;99.90;;;;;;4431072;28;656497;-67
2022/05/31 06:49:31;;;;;;;6.93;4.27;;;16.40;99.90;;;;;;4504488;28;656382;-68
2022/05/31 06:58:28;;;;;;;8.63;4.18;;;16.20;97.00;;;;;;4399545;28;656444;-67
2022/05/31 07:01:16;;;;;;;6.37;4.23;;;16.60;99.90;;;;;;4438399;28;656616;-67
2022/05/31 07:04:03;;;;;;;7.70;4.30;;;16.90;92.50;;;;;;4562851;28;657333;-67
2022/05/31 07:06:50;;;;;;;6.57;4.40;;;17.00;99.90;;;;;;4412991;28;657018;-68
2022/05/31 07:09:45;;;;;;;5.73;4.00;;;16.70;90.30;;;;;;4430025;28;657392;-68
2022/05/31 07:12:32;;;;;;;6.63;4.30;;;16.90;97.40;;;;;;4405512;28;656660;-68
2022/05/31 07:15:21;;;;;;;7.53;4.20;;;17.00;95.30;;;;;;4428871;28;659113;-68
2022/05/31 07:18:09;;;;;;;9.40;4.30;;;17.20;96.70;;;;;;4407047;28;656992;-68
2022/05/31 07:20:56;;;;;;;5.47;3.60;;;17.20;90.80;;;;;;4399404;28;656450;-68
2022/05/31 07:23:43;;;;;;;6.13;4.10;;;17.20;93.70;;;;;;4426427;28;657088;-67
2022/05/31 07:26:31;;;;;;;7.10;3.97;;;17.00;89.00;;;;;;4408420;28;657175;-68
2022/05/31 07:29:18;;;;;;;7.20;3.63;;;17.10;99.50;;;;;;4427903;28;656738;-68
2022/05/31 07:32:08;;;;;;;7.67;3.93;;;17.30;90.80;;;;;;4407879;28;657145;-68
2022/05/31 07:34:55;;;;;;;8.13;3.80;;;17.80;90.70;;;;;;4406807;28;656499;-68
2022/05/31 07:37:43;;;;;;;4.90;3.83;;;18.00;91.80;;;;;;4428617;28;658094;-68
2022/05/31 07:40:30;;;;;;;5.73;3.80;;;18.10;87.20;;;;;;4419647;28;657068;-68
2022/05/31 07:43:17;;;;;;;6.73;3.50;;;18.10;94.00;;;;;;4451958;28;657668;-68
2022/05/31 07:46:06;;;;;;;11.87;4.00;;;18.30;90.60;;;;;;4424215;28;656720;-68
2022/05/31 07:48:55;;;;;;;6.45;3.90;;;17.90;84.00;;;;;;4424776;28;659391;-68
2022/05/31 07:51:42;;;;;;;7.63;3.80;;;18.20;86.80;;;;;;4409696;28;658117;-67
2022/05/31 07:54:31;;;;;;;5.23;3.50;;;17.90;91.10;;;;;;4426325;28;656588;-68
2022/05/31 08:00:23;;;;;;;11.23;3.83;;;18.10;83.90;;;;;;4405362;28;657044;-68
2022/05/31 08:03:10;;;;;;;8.63;3.50;;;18.50;84.80;;;;;;4407438;28;657971;-68
2022/05/31 08:06:02;;;;;;;7.03;2.80;;;18.20;72.70;;;;;;4427706;28;658187;-68
2022/05/31 08:08:49;;;;;;;5.50;2.60;;;18.60;76.30;;;;;;4400028;28;656877;-68
2022/05/31 08:11:37;;;;;;;4.97;2.87;;;18.80;74.30;;;;;;4405578;28;656719;-68
2022/05/31 08:14:24;;;;;;;6.00;3.60;;;18.50;67.00;;;;;;4427785;28;656702;-68
2022/05/31 08:17:11;;;;;;;5.40;1.97;;;18.60;71.50;;;;;;4409733;28;656263;-68
2022/05/31 08:19:58;;;;;;;5.77;1.47;;;19.00;57.40;;;;;;4427759;28;658205;-68
2022/05/31 08:22:48;;;;;;;4.63;2.33;;;19.50;58.90;;;;;;4409603;28;656416;-68
2022/05/31 08:25:38;;;;;;;4.40;2.40;;;19.40;62.00;;;;;;4419132;28;656648;-68
2022/05/31 08:28:25;;;;;;;1.93;1.50;;;19.10;59.90;;;;;;4406575;28;656549;-68
2022/05/31 08:31:13;;;;;;;5.70;2.63;;;19.80;56.90;;;;;;4420526;28;656977;-68
2022/05/31 08:34:08;;;;;;;3.80;2.50;;;20.10;66.90;;;;;;4398779;28;656330;-68
2022/05/31 08:36:56;;;;;;;5.43;2.00;;;19.80;59.50;;;;;;4389015;28;656190;-68
2022/05/31 08:39:44;;;;;;;3.43;1.70;;;20.70;59.80;;;;;;4423204;28;656680;-68
2022/05/31 08:42:52;;;;;;;3.60;1.80;;;20.50;55.30;;;;;;4403754;28;656374;-68
2022/05/31 08:45:42;;;;;;;2.47;1.60;;;20.50;53.00;;;;;;4398916;28;656374;-68
2022/05/31 08:48:32;;;;;;;3.67;1.97;;;21.20;57.10;;;;;;4399551;28;656539;-68
2022/05/31 08:57:43;;;;;;;6.23;2.70;;;20.50;60.80;;;;;;4397689;28;657003;-68
2022/05/31 09:00:33;;;;;;;6.03;3.17;;;20.80;59.90;;;;;;4361954;28;656982;-68
2022/05/31 09:03:21;;;;;;;4.17;2.70;;;21.00;59.20;;;;;;4403333;28;656684;-68
2022/05/31 09:06:10;;;;;;;5.00;2.70;;;21.60;64.20;;;;;;4418449;28;656628;-68
2022/05/31 09:09:03;;;;;;;4.20;2.43;;;21.60;56.80;;;;;;4404899;28;657658;-68
2022/05/31 09:11:57;;;;;;;5.43;2.50;;;20.90;58.30;;;;;;4381552;28;657169;-68
2022/05/31 09:14:49;;;;;;;4.23;2.77;;;20.30;56.50;;;;;;4394024;28;656532;-68
2022/05/31 09:17:41;;;;;;;6.17;3.17;;;20.10;60.90;;;;;;4370278;28;658306;-68
2022/05/31 09:20:32;;;;;;;4.93;3.00;;;20.30;63.60;;;;;;4397308;28;656853;-68
2022/05/31 09:23:21;;;;;;;6.57;2.87;;;20.40;59.90;;;;;;4395520;28;656536;-68
2022/05/31 09:26:13;;;;;;;4.57;2.60;;;20.50;58.80;;;;;;4395293;28;657060;-68
2022/05/31 09:29:03;;;;;;;4.20;2.50;;;20.80;56.80;;;;;;4405007;28;656725;-68
2022/05/31 09:32:02;;;;;;;4.87;2.63;;;21.60;57.70;;;;;;4396957;28;657460;-68
2022/05/31 09:35:06;;;;;;;5.07;2.40;;;22.20;53.90;;;;;;4395526;28;657000;-68
2022/05/31 09:38:05;;;;;;;3.87;2.33;;;21.70;54.30;;;;;;4403738;28;656466;-68
2022/05/31 09:40:53;;;;;;;4.80;2.70;;;21.60;55.00;;;;;;4372203;28;657690;-68
2022/05/31 09:43:42;;;;;;;8.73;2.60;;;21.80;56.60;;;;;;4408230;28;656472;-68
2022/05/31 09:46:39;;;;;;;5.07;2.77;;;22.10;52.80;;;;;;4420338;28;656722;-68
2022/05/31 09:49:32;;;;;;;2.30;1.97;;;22.20;52.30;;;;;;4371764;28;657973;-68
2022/05/31 09:52:23;;;;;;;9.10;2.33;;;22.20;53.90;;;;;;4404199;28;656716;-68
2022/05/31 09:58:22;;;;;;;4.60;2.37;;;22.30;55.90;;;;;;4387913;28;656492;-68
2022/05/31 10:01:24;;;;;;;12.03;3.03;;;22.20;53.10;;;;;;4417819;28;656859;-68
2022/05/31 10:04:13;;;;;;;6.10;2.50;;;22.10;52.60;;;;;;4386381;28;658333;-68
2022/05/31 10:07:03;;;;;;;7.60;2.30;;;22.00;53.10;;;;;;4413109;28;656748;-68
2022/05/31 10:09:51;;;;;;;2.93;2.10;;;21.90;54.50;;;;;;4405535;28;656639;-68
2022/05/31 10:12:39;;;;;;;4.17;2.00;;;21.40;52.60;;;;;;4422662;28;657167;-68
2022/05/31 10:15:34;;;;;;;6.10;2.00;;;21.50;53.00;;;;;;4400973;28;656315;-68
2022/05/31 10:18:26;;;;;;;4.60;1.90;;;21.50;50.10;;;;;;4372426;28;657985;-68
2022/05/31 10:21:13;;;;;;;5.07;2.13;;;20.60;50.70;;;;;;4413346;28;657728;-68
2022/05/31 10:24:06;;;;;;;7.20;2.20;;;21.60;51.30;;;;;;4409863;28;656326;-68
2022/05/31 10:27:05;;;;;;;5.03;2.10;;;22.30;51.10;;;;;;4407098;28;657727;-68
2022/05/31 10:29:53;;;;;;;4.97;2.20;;;23.00;48.80;;;;;;4399138;28;656298;-68
2022/05/31 10:32:43;;;;;;;6.70;2.53;;;22.90;47.90;;;;;;4408398;28;656518;-68
2022/05/31 10:35:31;;;;;;;4.20;2.22;;;22.40;51.80;;;;;;4406776;28;657097;-68
2022/05/31 10:38:26;;;;;;;6.37;2.63;;;21.40;50.40;;;;;;4429374;28;657323;-68
2022/05/31 10:41:21;;;;;;;4.40;2.23;;;21.20;52.40;;;;;;4383887;28;657353;-67
2022/05/31 10:44:13;;;;;;;6.63;2.30;;;21.30;50.20;;;;;;4395840;28;656139;-68
2022/05/31 10:47:05;;;;;;;6.53;2.20;;;21.70;54.80;;;;;;4378194;28;657469;-68
2022/05/31 10:49:52;;;;;;;14.50;2.80;;;22.10;53.90;;;;;;4401282;28;658194;-68
2022/05/31 10:52:41;;;;;;;5.80;2.33;;;23.00;51.80;;;;;;4418372;28;658025;-68
2022/05/31 10:55:33;;;;;;;3.13;2.20;;;21.80;49.90;;;;;;4390326;28;657229;-68
2022/05/31 10:58:42;;;;;;;5.23;2.20;;;21.70;49.90;;;;;;4386307;28;656525;-68
2022/05/31 11:01:49;;;;;;;3.47;2.13;;;21.90;52.10;;;;;;4424465;28;656456;-68
2022/05/31 11:04:50;;;;;;;7.90;2.40;;;22.70;51.90;;;;;;4381956;28;657682;-68
2022/05/31 11:07:42;;;;;;;4.77;2.40;;;23.20;50.30;;;;;;4383660;28;656799;-68
2022/05/31 11:13:46;;;;;;;3.20;1.70;;;24.10;52.00;;;;;;4430061;28;656613;-70
2022/05/31 11:16:38;;;;;;;6.35;2.05;;;23.20;47.70;;;;;;4411112;28;657110;-70
2022/05/31 11:19:35;;;;;;;6.10;2.00;;;22.50;51.40;;;;;;4382921;28;656897;-70
2022/05/31 11:22:36;;;;;;;2.72;2.10;;;22.60;52.20;;;;;;4373114;28;656452;-70
2022/05/31 11:25:52;;;;;;;4.03;2.33;;;21.60;52.10;;;;;;4385908;28;656909;-70
2022/05/31 11:28:57;;;;;;;5.00;2.10;;;21.70;49.40;;;;;;4387625;28;656357;-70
2022/05/31 11:31:50;;;;;;;6.00;2.20;;;22.20;51.80;;;;;;4395040;28;657264;-70
2022/05/31 11:34:45;;;;;;;3.83;2.23;;;23.00;51.30;;;;;;4397662;28;657492;-70
2022/05/31 11:37:38;;;;;;;3.27;2.27;;;23.00;50.70;;;;;;4377379;28;657516;-70
2022/05/31 11:40:35;;;;;;;2.33;2.10;;;23.80;49.50;;;;;;4377627;28;656148;-70
2022/05/31 11:43:34;;;;;;;2.63;2.10;;;23.00;51.10;;;;;;4378088;28;657773;-70
2022/05/31 11:46:26;;;;;;;4.03;2.23;;;22.80;51.20;;;;;;4406656;28;656606;-70
2022/05/31 11:49:16;;;;;;;3.80;1.90;;;23.60;53.20;;;;;;4400786;28;657160;-70
2022/05/31 11:52:33;;;;;;;3.55;2.22;;;24.10;48.10;;;;;;4403910;28;657397;-70
2022/05/31 11:55:26;;;;;;;3.40;1.98;;;23.80;51.80;;;;;;4383933;28;657248;-70
2022/05/31 11:58:29;;;;;;;2.90;2.30;;;24.50;50.60;;;;;;4396170;28;656685;-70
2022/05/31 12:01:18;;;;;;;4.80;2.25;;;24.60;50.70;;;;;;4378823;28;657129;-70
2022/05/31 12:04:10;;;;;;;3.55;2.38;;;24.60;50.90;;;;;;4404989;28;656943;-70
2022/05/31 12:07:04;;;;;;;10.35;2.42;;;24.60;50.60;;;;;;4395713;28;657211;-70
2022/05/31 12:09:54;;;;;;;7.32;2.30;;;24.90;48.70;;;;;;4404699;28;657773;-70
2022/05/31 12:12:42;;;;;;;4.95;2.17;;;24.60;50.30;;;;;;4407801;28;657173;-70
2022/05/31 12:15:30;;;;;;;3.88;2.10;;;24.60;48.10;;;;;;4427766;28;656345;-70
2022/05/31 12:18:21;;;;;;;6.88;2.35;;;25.00;47.90;;;;;;4401741;28;658555;-70
2022/05/31 12:21:14;;;;;;;4.03;2.10;;;24.80;48.20;;;;;;4398958;28;657049;-70
2022/05/31 12:24:05;;;;;;;4.35;2.33;;;24.50;48.70;;;;;;4383857;28;656900;-70
2022/05/31 12:26:54;;;;;;;4.13;2.45;;;25.30;49.40;;;;;;4402636;28;657164;-70
2022/05/31 12:29:44;;;;;;;5.35;2.70;;;24.90;50.10;;;;;;4408097;28;656654;-70
2022/05/31 12:32:43;;;;;;;10.00;3.20;;;24.30;49.70;;;;;;4409009;28;656468;-70
2022/05/31 12:35:52;;;;;;;6.05;2.35;;;24.50;48.20;;;;;;4395777;28;657055;-70
2022/05/31 12:39:01;;;;;;;6.57;2.20;;;24.20;48.00;;;;;;4400425;28;656178;-70
2022/05/31 12:41:50;;;;;;;7.10;2.00;;;25.10;49.90;;;;;;4400785;28;656864;-70
2022/05/31 12:44:37;;;;;;;6.37;2.10;;;25.80;45.40;;;;;;4404732;28;656897;-70
2022/05/31 12:47:28;;;;;;;6.68;2.30;;;25.30;45.90;;;;;;4422198;28;656572;-70
2022/05/31 12:50:15;;;;;;;4.10;1.98;;;24.90;47.00;;;;;;4381877;28;656494;-70
2022/05/31 12:56:44;;;;;;;3.33;2.15;;;26.40;44.50;;;;;;4395615;28;656364;-70
2022/05/31 12:59:42;;;;;;;4.10;2.45;;;26.10;45.30;;;;;;4415475;28;656967;-67
2022/05/31 13:02:39;;;;;;;6.15;2.13;;;24.90;44.40;;;;;;4389631;28;656932;-68
2022/05/31 13:05:39;;;;;;;11.00;2.90;;;24.10;47.50;;;;;;4405858;28;657036;-67
2022/05/31 13:08:52;;;;;;;2.65;1.90;;;24.00;49.30;;;;;;4394639;28;657532;-68
2022/05/31 13:21:06;;;;;;;12.73;2.50;;;24.60;46.40;;;;;;4418405;28;657097;-68
2022/05/31 13:23:53;;;;;;;8.85;2.63;;;24.50;49.00;;;;;;4382527;28;658241;-68
2022/05/31 13:26:44;;;;;;;10.93;2.20;;;23.70;48.80;;;;;;4416553;28;656424;-68
2022/05/31 13:29:32;;;;;;;4.05;2.60;;;23.60;49.00;;;;;;4398038;28;658603;-68
2022/05/31 13:32:19;;;;;;;5.28;2.10;;;23.10;50.20;;;;;;4502948;28;657117;-68
2022/05/31 13:35:10;;;;;;;4.35;2.40;;;23.90;50.40;;;;;;4406325;28;656492;-68
2022/05/31 13:37:58;;;;;;;4.43;2.20;;;25.20;50.20;;;;;;4381036;28;658278;-68
2022/05/31 13:40:47;;;;;;;6.32;2.28;;;26.50;45.90;;;;;;4403237;28;656927;-68
2022/05/31 13:43:39;;;;;;;5.03;1.88;;;26.90;44.80;;;;;;4425983;28;656707;-68
2022/05/31 13:46:29;;;;;;;3.97;1.70;;;25.80;44.90;;;;;;4410548;28;656311;-68
2022/05/31 13:49:17;;;;;;;4.35;1.98;;;25.50;45.50;;;;;;4411987;28;656797;-68
2022/05/31 13:52:06;;;;;;;4.35;2.00;;;25.20;46.70;;;;;;4427935;28;657315;-68
2022/05/31 13:54:54;;;;;;;4.28;2.20;;;24.50;47.60;;;;;;4403354;28;657517;-68
2022/05/31 13:57:50;;;;;;;3.35;2.30;;;25.00;47.30;;;;;;4406060;28;657014;-68
2022/05/31 14:00:41;;;;;;;3.88;2.08;;;25.30;46.40;;;;;;4407830;28;656848;-68
2022/05/31 14:03:30;;;;;;;7.80;2.50;;;26.00;47.40;;;;;;4405019;28;656548;-68
2022/05/31 14:06:18;;;;;;;5.00;2.05;;;26.80;45.90;;;;;;4411717;28;657189;-68
2022/05/31 14:09:06;;;;;;;6.75;2.20;;;26.60;45.20;;;;;;4409602;28;656600;-68
2022/05/31 14:11:55;;;;;;;4.68;2.10;;;26.00;45.70;;;;;;4426075;28;656941;-67
2022/05/31 14:14:44;;;;;;;6.55;2.15;;;24.80;46.50;;;;;;4408312;28;657943;-68
2022/05/31 14:17:35;;;;;;;2.22;1.70;;;25.10;44.00;;;;;;4399534;28;656821;-68
2022/05/31 14:20:25;;;;;;;3.67;2.10;;;24.60;47.20;;;;;;4400062;28;656338;-67
2022/05/31 14:23:18;;;;;;;6.68;2.05;;;24.10;49.30;;;;;;4398490;28;658162;-68
2022/05/31 14:26:05;;;;;;;6.07;3.22;;;24.00;51.10;;;;;;4378151;28;657309;-68
2022/05/31 14:29:13;;;;;;;4.53;2.22;;;24.70;49.40;;;;;;4423469;28;657099;-68
2022/05/31 14:32:22;;;;;;;5.43;2.20;;;25.20;50.10;;;;;;4377766;28;656986;-68
2022/05/31 14:35:15;;;;;;;7.68;2.40;;;24.90;47.10;;;;;;4395337;28;656571;-67
2022/05/31 14:38:04;;;;;;;6.63;2.08;;;24.40;46.60;;;;;;4373578;28;656848;-68
2022/05/31 14:41:00;;;;;;;8.50;2.05;;;24.20;48.50;;;;;;4402947;28;656771;-67
2022/05/31 14:43:52;;;;;;;6.00;2.30;;;23.80;49.20;;;;;;4376438;28;657047;-67
2022/05/31 14:46:39;;;;;;;4.72;2.10;;;23.70;48.00;;;;;;4405078;28;657242;-68
2022/05/31 14:49:28;;;;;;;9.93;2.53;;;23.70;49.20;;;;;;4389780;28;657121;-67
2022/05/31 14:52:24;;;;;;;6.65;2.28;;;23.00;49.70;;;;;;4416787;28;656891;-67
2022/05/31 14:55:15;;;;;;;7.97;2.60;;;23.00;51.00;;;;;;4371030;28;656840;-67
2022/05/31 15:01:17;;;;;;;4.20;2.40;;;24.10;51.30;;;;;;4390170;28;656374;-68
2022/05/31 15:04:06;;;;;;;3.97;1.92;;;25.30;48.80;;;;;;4402178;28;656698;-67
2022/05/31 15:07:00;;;;;;;4.07;1.98;;;25.30;47.50;;;;;;4397404;28;656717;-67
2022/05/31 15:09:49;;;;;;;6.47;2.05;;;25.90;46.80;;;;;;4384356;28;657628;-67
2022/05/31 15:19:00;;;;;;;3.03;2.20;;;23.80;48.80;;;;;;4379173;28;657098;-67
2022/05/31 15:21:48;;;;;;;9.63;2.10;;;23.40;49.50;;;;;;4376245;28;657968;-67
2022/05/31 15:24:38;;;;;;;9.45;2.58;;;23.00;51.30;;;;;;4407062;28;656677;-67